Ignatyevo Airport
UHBB : now visible

Airfield :











YOU CAN JOIN US ON...

 
LOGIN :

Register | Disclaimer

   EN    FR    IT 

 









Legend :    VFR   Marginal VFR   IFR   Intensive IFR   Very Intensive IFR
Visi :
Ceiling :
>= 8 km
>= 3000ft
5 to 8 km
1000 to 3000 ft
1500m to 5 km
500 to 1000 ft
800 to 1500m
200 to 500 ft
< 800m
< 200 ft
Symbols :   Thunderstorms  Fog  Heavy snow  Heavy precipitations  Wind > 20 kt






- Airport Elevation : 638 ft
- IATA code : BQS


UHBB - Ignatyevo

CURRENT METAR :
  • 180030Z 00000MPS 7000 NSC M23/M26 Q1019 R36/090060 NOSIG RMK QFE747/0996

EXPIRED METARs :
  • 180000Z 24001MPS 6000 NSC M24/M27 Q1019 R36/090060 NOSIG RMK QFE747/0996
  • 172330Z 12001MPS 7000 NSC M24/M27 Q1019 R36/090060 NOSIG RMK QFE746/0995
  • 172300Z 10001MPS 8000 NSC M24/M27 Q1019 R36/090060 NOSIG RMK QFE746/0995
  • 172230Z 00000MPS 7000 NSC M23/M25 Q1019 R36/090060 NOSIG RMK QFE746/0995
  • 172200Z 26001MPS 7000 NSC M22/M25 Q1019 R36/090060 NOSIG RMK QFE746/0995

TAF TAF UHBB
Valid from the 18 at 00:00 until the 19 at 00:00 UTC


172240Z 1800/1824 09003MPS CAVOK
BECMG 1810/1812 34003MPS



MET'MAP, your aeronautical weather chart ! - Copyright ORBIFLY December 2007 - Disclaimer

ORBIFLY MET'MAP TEAM :

Programming & Development : Alexandra Zaïnal
Concept & original design : Baudouin d'Aumeries
Assistance for programming : Marc-Olivier Méhu
Technical & hardware support : Manuel Goepfert

Contact : metmap@orbifly.com




SOURCES & CREDITS :

   NOAA       Earth
Advisory